sensor_id;sensor_type;location;lat;lon;timestamp;pressure;altitude;pressure_sealevel;temperature;humidity
64713;BME280;51140;45.340;5.980;2024-01-11T00:02:20;98834.94;;;1.78;99.58
64713;BME280;51140;45.340;5.980;2024-01-11T00:04:45;98837.69;;;1.69;100.00
64713;BME280;51140;45.340;5.980;2024-01-11T00:07:11;98836.06;;;1.68;100.00
64713;BME280;51140;45.340;5.980;2024-01-11T00:09:41;98843.13;;;1.68;100.00
64713;BME280;51140;45.340;5.980;2024-01-11T00:12:06;98844.34;;;1.72;99.77
64713;BME280;51140;45.340;5.980;2024-01-11T00:14:32;98843.03;;;1.83;99.52
64713;BME280;51140;45.340;5.980;2024-01-11T00:16:57;98842.22;;;1.82;99.80
64713;BME280;51140;45.340;5.980;2024-01-11T00:19:22;98837.75;;;1.76;100.00
64713;BME280;51140;45.340;5.980;2024-01-11T00:21:48;98843.97;;;1.75;99.49
64713;BME280;51140;45.340;5.980;2024-01-11T00:24:13;98850.63;;;1.78;99.91
64713;BME280;51140;45.340;5.980;2024-01-11T00:26:38;98839.78;;;1.81;99.64
64713;BME280;51140;45.340;5.980;2024-01-11T00:29:04;98834.97;;;1.84;99.12
64713;BME280;51140;45.340;5.980;2024-01-11T00:31:29;98844.41;;;1.79;99.22
64713;BME280;51140;45.340;5.980;2024-01-11T00:33:55;98833.72;;;1.80;99.35
64713;BME280;51140;45.340;5.980;2024-01-11T00:36:20;98834.94;;;1.78;98.91
64713;BME280;51140;45.340;5.980;2024-01-11T00:38:46;98830.06;;;1.74;98.55
64713;BME280;51140;45.340;5.980;2024-01-11T00:41:11;98837.16;;;1.81;99.14
64713;BME280;51140;45.340;5.980;2024-01-11T00:43:36;98834.94;;;1.78;99.96
64713;BME280;51140;45.340;5.980;2024-01-11T00:46:02;98831.13;;;1.80;100.00
64713;BME280;51140;45.340;5.980;2024-01-11T00:48:27;98831.69;;;1.76;100.00
64713;BME280;51140;45.340;5.980;2024-01-11T00:50:53;98831.50;;;1.77;100.00
64713;BME280;51140;45.340;5.980;2024-01-11T00:53:18;98831.69;;;1.76;100.00
64713;BME280;51140;45.340;5.980;2024-01-11T00:55:43;98836.50;;;1.72;100.00
64713;BME280;51140;45.340;5.980;2024-01-11T00:58:09;98831.91;;;1.74;99.20
64713;BME280;51140;45.340;5.980;2024-01-11T01:00:34;98831.75;;;1.82;99.03
64713;BME280;51140;45.340;5.980;2024-01-11T01:02:59;98835.56;;;1.80;98.92
64713;BME280;51140;45.340;5.980;2024-01-11T01:05:25;98837.75;;;1.76;99.04
64713;BME280;51140;45.340;5.980;2024-01-11T01:07:50;98842.63;;;1.86;98.95
64713;BME280;51140;45.340;5.980;2024-01-11T01:10:15;98837.81;;;1.89;98.30
64713;BME280;51140;45.340;5.980;2024-01-11T01:12:41;98827.41;;;1.96;98.33
64713;BME280;51140;45.340;5.980;2024-01-11T01:15:07;98830.94;;;1.82;99.70
64713;BME280;51140;45.340;5.980;2024-01-11T01:17:32;98832.41;;;1.91;99.55
64713;BME280;51140;45.340;5.980;2024-01-11T01:19:57;98847.47;;;1.89;99.49
64713;BME280;51140;45.340;5.980;2024-01-11T01:22:23;98840.81;;;1.86;99.51
64713;BME280;51140;45.340;5.980;2024-01-11T01:24:48;98829.91;;;1.76;100.00
64713;BME280;51140;45.340;5.980;2024-01-11T01:27:13;98841.03;;;1.85;100.00
64713;BME280;51140;45.340;5.980;2024-01-11T01:29:39;98846.50;;;1.90;100.00
64713;BME280;51140;45.340;5.980;2024-01-11T01:32:04;98842.63;;;1.86;100.00
64713;BME280;51140;45.340;5.980;2024-01-11T01:34:30;98839.41;;;1.84;99.47
64713;BME280;51140;45.340;5.980;2024-01-11T01:36:55;98838.78;;;1.82;100.00
64713;BME280;51140;45.340;5.980;2024-01-11T01:39:20;98840.00;;;1.86;99.86
64713;BME280;51140;45.340;5.980;2024-01-11T01:41:46;98840.06;;;1.92;100.00
64713;BME280;51140;45.340;5.980;2024-01-11T01:44:11;98844.19;;;1.80;100.00
64713;BME280;51140;45.340;5.980;2024-01-11T01:46:37;98845.00;;;1.74;100.00
64713;BME280;51140;45.340;5.980;2024-01-11T01:49:03;98842.22;;;1.82;99.56
64713;BME280;51140;45.340;5.980;2024-01-11T01:51:29;98846.03;;;1.80;100.00
64713;BME280;51140;45.340;5.980;2024-01-11T01:53:56;98840.81;;;1.80;100.00
64713;BME280;51140;45.340;5.980;2024-01-11T01:56:22;98845.53;;;1.69;98.68
64713;BME280;51140;45.340;5.980;2024-01-11T01:58:50;98846.53;;;1.68;98.36
64713;BME280;51140;45.340;5.980;2024-01-11T02:01:18;98848.28;;;1.83;98.60
64713;BME280;51140;45.340;5.980;2024-01-11T02:03:45;98850.03;;;1.76;99.23
64713;BME280;51140;45.340;5.980;2024-01-11T02:06:13;98848.16;;;1.69;98.71
64713;BME280;51140;45.340;5.980;2024-01-11T02:08:40;98851.75;;;1.68;98.90
64713;BME280;51140;45.340;5.980;2024-01-11T02:11:07;98852.41;;;1.70;99.93
64713;BME280;51140;45.340;5.980;2024-01-11T02:13:33;98850.47;;;1.86;99.88
64713;BME280;51140;45.340;5.980;2024-01-11T02:15:58;98843.41;;;1.80;99.75
64713;BME280;51140;45.340;5.980;2024-01-11T02:18:24;98845.66;;;1.83;99.46
64713;BME280;51140;45.340;5.980;2024-01-11T02:20:49;98845.00;;;1.74;100.00
64713;BME280;51140;45.340;5.980;2024-01-11T02:23:17;98839.56;;;1.76;99.51
64713;BME280;51140;45.340;5.980;2024-01-11T02:25:44;98842.97;;;1.76;99.37
64713;BME280;51140;45.340;5.980;2024-01-11T02:28:10;98842.38;;;1.74;98.61
64713;BME280;51140;45.340;5.980;2024-01-11T02:30:36;98837.13;;;1.74;99.12
64713;BME280;51140;45.340;5.980;2024-01-11T02:33:02;98833.31;;;1.77;98.36
64713;BME280;51140;45.340;5.980;2024-01-11T02:35:28;98834.69;;;1.72;99.74
64713;BME280;51140;45.340;5.980;2024-01-11T02:37:54;98834.09;;;1.77;98.26
64713;BME280;51140;45.340;5.980;2024-01-11T02:40:20;98833.88;;;1.72;99.08
64713;BME280;51140;45.340;5.980;2024-01-11T02:42:47;98829.91;;;1.76;99.69
64713;BME280;51140;45.340;5.980;2024-01-11T02:45:12;98831.03;;;1.67;99.56
64713;BME280;51140;45.340;5.980;2024-01-11T02:47:38;98827.22;;;1.69;99.36
64713;BME280;51140;45.340;5.980;2024-01-11T02:50:05;98829.66;;;1.71;98.78
64713;BME280;51140;45.340;5.980;2024-01-11T02:52:32;98824.84;;;1.74;98.92
64713;BME280;51140;45.340;5.980;2024-01-11T02:54:57;98830.66;;;1.70;98.34
64713;BME280;51140;45.340;5.980;2024-01-11T02:57:22;98830.97;;;1.60;100.00
64713;BME280;51140;45.340;5.980;2024-01-11T02:59:49;98823.88;;;1.54;100.00
64713;BME280;51140;45.340;5.980;2024-01-11T03:02:15;98828.66;;;1.44;100.00
64713;BME280;51140;45.340;5.980;2024-01-11T03:04:40;98823.50;;;1.57;100.00
64713;BME280;51140;45.340;5.980;2024-01-11T03:07:06;98835.00;;;1.56;100.00
64713;BME280;51140;45.340;5.980;2024-01-11T03:09:31;98832.50;;;1.48;100.00
64713;BME280;51140;45.340;5.980;2024-01-11T03:11:57;98823.13;;;1.60;99.69
64713;BME280;51140;45.340;5.980;2024-01-11T03:14:22;98823.47;;;1.51;99.60
64713;BME280;51140;45.340;5.980;2024-01-11T03:16:47;98827.00;;;1.64;99.21
64713;BME280;51140;45.340;5.980;2024-01-11T03:19:13;98831.56;;;1.56;99.79
64713;BME280;51140;45.340;5.980;2024-01-11T03:21:43;98822.38;;;1.66;99.44
64713;BME280;51140;45.340;5.980;2024-01-11T03:24:08;98820.88;;;1.57;99.78
64713;BME280;51140;45.340;5.980;2024-01-11T03:26:34;98821.66;;;1.51;99.90
64713;BME280;51140;45.340;5.980;2024-01-11T03:28:59;98821.53;;;1.59;99.75
64713;BME280;51140;45.340;5.980;2024-01-11T03:31:24;98827.38;;;1.61;99.91
64713;BME280;51140;45.340;5.980;2024-01-11T03:33:50;98825.56;;;1.62;100.00
64713;BME280;51140;45.340;5.980;2024-01-11T03:36:15;98817.81;;;1.47;100.00
64713;BME280;51140;45.340;5.980;2024-01-11T03:38:40;98822.44;;;1.45;100.00
64713;BME280;51140;45.340;5.980;2024-01-11T03:41:09;98819.59;;;1.47;100.00
64713;BME280;51140;45.340;5.980;2024-01-11T03:43:37;98824.78;;;1.40;100.00
64713;BME280;51140;45.340;5.980;2024-01-11T03:46:03;98829.78;;;1.35;100.00
64713;BME280;51140;45.340;5.980;2024-01-11T03:48:30;98823.78;;;1.41;100.00
64713;BME280;51140;45.340;5.980;2024-01-11T03:50:55;98830.88;;;1.47;100.00
64713;BME280;51140;45.340;5.980;2024-01-11T03:53:20;98830.75;;;1.34;100.00
64713;BME280;51140;45.340;5.980;2024-01-11T03:55:46;98829.53;;;1.30;100.00
64713;BME280;51140;45.340;5.980;2024-01-11T03:58:11;98827.72;;;1.31;100.00
64713;BME280;51140;45.340;5.980;2024-01-11T04:00:36;98827.78;;;1.37;100.00
64713;BME280;51140;45.340;5.980;2024-01-11T04:03:02;98826.19;;;1.43;100.00
64713;BME280;51140;45.340;5.980;2024-01-11T04:05:27;98833.50;;;1.47;100.00
64713;BME280;51140;45.340;5.980;2024-01-11T04:07:53;98836.13;;;1.47;100.00
64713;BME280;51140;45.340;5.980;2024-01-11T04:10:18;98838.72;;;1.47;100.00
64713;BME280;51140;45.340;5.980;2024-01-11T04:12:44;98839.13;;;1.44;100.00
64713;BME280;51140;45.340;5.980;2024-01-11T04:15:11;98839.94;;;1.45;100.00
64713;BME280;51140;45.340;5.980;2024-01-11T04:17:38;98841.06;;;1.36;100.00
64713;BME280;51140;45.340;5.980;2024-01-11T04:20:04;98839.25;;;1.36;100.00
64713;BME280;51140;45.340;5.980;2024-01-11T04:22:30;98841.91;;;1.43;100.00
64713;BME280;51140;45.340;5.980;2024-01-11T04:24:55;98839.94;;;1.45;100.00
64713;BME280;51140;45.340;5.980;2024-01-11T04:27:21;98852.69;;;1.33;100.00
64713;BME280;51140;45.340;5.980;2024-01-11T04:29:46;98844.13;;;1.46;100.00
64713;BME280;51140;45.340;5.980;2024-01-11T04:32:11;98846.34;;;1.42;100.00
64713;BME280;51140;45.340;5.980;2024-01-11T04:34:37;98851.88;;;1.33;100.00
64713;BME280;51140;45.340;5.980;2024-01-11T04:37:02;98845.16;;;1.45;100.00
64713;BME280;51140;45.340;5.980;2024-01-11T04:39:28;98840.84;;;1.37;100.00
64713;BME280;51140;45.340;5.980;2024-01-11T04:41:53;98848.22;;;1.48;100.00
64713;BME280;51140;45.340;5.980;2024-01-11T04:44:18;98851.22;;;1.52;100.00
64713;BME280;51140;45.340;5.980;2024-01-11T04:46:44;98855.53;;;1.59;100.00
64713;BME280;51140;45.340;5.980;2024-01-11T04:49:09;98852.56;;;1.62;99.86
64713;BME280;51140;45.340;5.980;2024-01-11T04:51:34;98843.44;;;1.58;99.22
64713;BME280;51140;45.340;5.980;2024-01-11T04:54:00;98841.88;;;1.64;98.65
64713;BME280;51140;45.340;5.980;2024-01-11T04:56:26;98849.41;;;1.73;98.77
64713;BME280;51140;45.340;5.980;2024-01-11T04:58:51;98851.16;;;1.66;99.08
64713;BME280;51140;45.340;5.980;2024-01-11T05:01:17;98853.63;;;1.74;99.44
64713;BME280;51140;45.340;5.980;2024-01-11T05:03:44;98840.16;;;1.78;100.00
64713;BME280;51140;45.340;5.980;2024-01-11T05:06:21;98848.91;;;1.63;99.30
64713;BME280;51140;45.340;5.980;2024-01-11T05:08:48;98845.38;;;1.71;100.00
64713;BME280;51140;45.340;5.980;2024-01-11T05:11:18;98854.00;;;1.71;100.00
64713;BME280;51140;45.340;5.980;2024-01-11T05:13:43;98850.69;;;1.56;99.57
64713;BME280;51140;45.340;5.980;2024-01-11T05:16:20;98846.13;;;1.65;99.45
64713;BME280;51140;45.340;5.980;2024-01-11T05:18:46;98844.78;;;1.76;99.49
64713;BME280;51140;45.340;5.980;2024-01-11T05:21:11;98841.03;;;1.85;99.59
64713;BME280;51140;45.340;5.980;2024-01-11T05:23:37;98842.16;;;1.76;99.82
64713;BME280;51140;45.340;5.980;2024-01-11T05:26:02;98842.13;;;1.69;99.38
64713;BME280;51140;45.340;5.980;2024-01-11T05:28:27;98846.34;;;1.70;98.86
64713;BME280;51140;45.340;5.980;2024-01-11T05:30:53;98847.41;;;1.76;98.70
64713;BME280;51140;45.340;5.980;2024-01-11T05:33:18;98848.88;;;1.85;99.80
64713;BME280;51140;45.340;5.980;2024-01-11T05:35:43;98852.09;;;1.87;99.86
64713;BME280;51140;45.340;5.980;2024-01-11T05:38:09;98849.41;;;1.73;100.00
64713;BME280;51140;45.340;5.980;2024-01-11T05:40:34;98849.78;;;1.70;100.00
64713;BME280;51140;45.340;5.980;2024-01-11T05:42:59;98844.34;;;1.72;99.72
64713;BME280;51140;45.340;5.980;2024-01-11T05:45:25;98853.25;;;1.78;99.23
64713;BME280;51140;45.340;5.980;2024-01-11T05:47:50;98848.66;;;1.80;100.00
64713;BME280;51140;45.340;5.980;2024-01-11T05:50:16;98847.56;;;1.67;97.86
64713;BME280;51140;45.340;5.980;2024-01-11T05:52:41;98849.16;;;1.68;97.49
64713;BME280;51140;45.340;5.980;2024-01-11T05:55:07;98853.63;;;1.74;97.03
64713;BME280;51140;45.340;5.980;2024-01-11T05:57:32;98842.38;;;1.74;97.49
64713;BME280;51140;45.340;5.980;2024-01-11T05:59:58;98847.03;;;1.79;98.19
64713;BME280;51140;45.340;5.980;2024-01-11T06:02:23;98847.78;;;1.72;97.37
64713;BME280;51140;45.340;5.980;2024-01-11T06:04:49;98850.16;;;1.67;98.19
64713;BME280;51140;45.340;5.980;2024-01-11T06:07:15;98844.19;;;1.73;97.11
64713;BME280;51140;45.340;5.980;2024-01-11T06:09:40;98847.19;;;1.77;97.01
64713;BME280;51140;45.340;5.980;2024-01-11T06:12:05;98860.06;;;1.72;97.84
64713;BME280;51140;45.340;5.980;2024-01-11T06:14:31;98851.22;;;1.73;97.41
64713;BME280;51140;45.340;5.980;2024-01-11T06:16:56;98852.69;;;1.82;97.17
64713;BME280;51140;45.340;5.980;2024-01-11T06:19:22;98858.47;;;1.78;98.15
64713;BME280;51140;45.340;5.980;2024-01-11T06:21:48;98854.88;;;1.79;97.19
64713;BME280;51140;45.340;5.980;2024-01-11T06:24:13;98854.28;;;1.83;96.76
64713;BME280;51140;45.340;5.980;2024-01-11T06:26:39;98867.75;;;1.80;96.48
64713;BME280;51140;45.340;5.980;2024-01-11T06:29:04;98862.59;;;1.59;96.18
64713;BME280;51140;45.340;5.980;2024-01-11T06:31:29;98867.72;;;1.73;97.42
64713;BME280;51140;45.340;5.980;2024-01-11T06:33:55;98874.78;;;1.73;97.81
64713;BME280;51140;45.340;5.980;2024-01-11T06:36:21;98870.97;;;1.76;96.25
64713;BME280;51140;45.340;5.980;2024-01-11T06:38:46;98870.75;;;1.77;96.46
64713;BME280;51140;45.340;5.980;2024-01-11T06:41:11;98869.38;;;1.81;96.45
64713;BME280;51140;45.340;5.980;2024-01-11T06:43:37;98871.19;;;1.81;96.03
64713;BME280;51140;45.340;5.980;2024-01-11T06:46:04;98878.28;;;1.87;96.34
64713;BME280;51140;45.340;5.980;2024-01-11T06:48:30;98877.69;;;1.85;97.31
64713;BME280;51140;45.340;5.980;2024-01-11T06:50:55;98884.91;;;1.83;96.08
64713;BME280;51140;45.340;5.980;2024-01-11T06:53:20;98892.13;;;1.81;95.80
64713;BME280;51140;45.340;5.980;2024-01-11T06:55:46;98896.59;;;1.87;95.42
64713;BME280;51140;45.340;5.980;2024-01-11T06:58:13;98888.97;;;1.85;96.03
64713;BME280;51140;45.340;5.980;2024-01-11T07:00:38;98898.13;;;1.74;96.36
64713;BME280;51140;45.340;5.980;2024-01-11T07:03:08;98892.50;;;1.78;96.62
64713;BME280;51140;45.340;5.980;2024-01-11T07:05:34;98894.13;;;1.79;98.04
64713;BME280;51140;45.340;5.980;2024-01-11T07:08:00;98901.03;;;1.86;97.95
64713;BME280;51140;45.340;5.980;2024-01-11T07:10:25;98900.22;;;1.86;98.92
64713;BME280;51140;45.340;5.980;2024-01-11T07:12:50;98906.91;;;1.88;96.74
64713;BME280;51140;45.340;5.980;2024-01-11T07:15:16;98910.31;;;1.89;97.38
64713;BME280;51140;45.340;5.980;2024-01-11T07:17:42;98913.88;;;1.81;96.44
64713;BME280;51140;45.340;5.980;2024-01-11T07:20:08;98913.75;;;1.89;97.46
64713;BME280;51140;45.340;5.980;2024-01-11T07:22:34;98918.22;;;1.95;97.31
64713;BME280;51140;45.340;5.980;2024-01-11T07:24:59;98915.38;;;1.90;97.46
64713;BME280;51140;45.340;5.980;2024-01-11T07:27:25;98920.91;;;2.02;98.00
64713;BME280;51140;45.340;5.980;2024-01-11T07:29:51;98926.50;;;1.99;97.92
64713;BME280;51140;45.340;5.980;2024-01-11T07:32:16;98926.06;;;1.95;97.91
64713;BME280;51140;45.340;5.980;2024-01-11T07:34:41;98926.06;;;1.95;96.09
64713;BME280;51140;45.340;5.980;2024-01-11T07:37:07;98930.75;;;2.00;96.06
64713;BME280;51140;45.340;5.980;2024-01-11T07:39:33;98926.84;;;1.89;95.60
64713;BME280;51140;45.340;5.980;2024-01-11T07:41:59;98930.88;;;1.92;95.98
64713;BME280;51140;45.340;5.980;2024-01-11T07:44:24;98936.50;;;1.89;96.03
64713;BME280;51140;45.340;5.980;2024-01-11T07:46:49;98929.97;;;1.78;95.55
64713;BME280;51140;45.340;5.980;2024-01-11T07:49:15;98931.25;;;1.89;96.39
64713;BME280;51140;45.340;5.980;2024-01-11T07:51:40;98932.03;;;1.83;95.71
64713;BME280;51140;45.340;5.980;2024-01-11T07:54:06;98941.72;;;1.89;96.75
64713;BME280;51140;45.340;5.980;2024-01-11T07:56:32;98941.56;;;1.69;95.13
64713;BME280;51140;45.340;5.980;2024-01-11T07:58:57;98944.69;;;1.58;95.71
64713;BME280;51140;45.340;5.980;2024-01-11T08:01:23;98937.06;;;1.63;95.18
64713;BME280;51140;45.340;5.980;2024-01-11T08:03:48;98945.81;;;1.70;95.43
64713;BME280;51140;45.340;5.980;2024-01-11T08:06:17;98941.75;;;1.67;95.65
64713;BME280;51140;45.340;5.980;2024-01-11T08:08:42;98943.63;;;1.73;95.27
64713;BME280;51140;45.340;5.980;2024-01-11T08:11:08;98945.06;;;1.76;95.19
64713;BME280;51140;45.340;5.980;2024-01-11T08:13:33;98954.94;;;1.81;95.39
64713;BME280;51140;45.340;5.980;2024-01-11T08:16:00;98949.91;;;1.79;95.70
64713;BME280;51140;45.340;5.980;2024-01-11T08:18:26;98946.19;;;1.88;95.89
64713;BME280;51140;45.340;5.980;2024-01-11T08:20:52;98941.72;;;1.89;95.68
64713;BME280;51140;45.340;5.980;2024-01-11T08:23:17;98944.97;;;1.91;94.63
64713;BME280;51140;45.340;5.980;2024-01-11T08:25:42;98950.97;;;1.85;95.06
64713;BME280;51140;45.340;5.980;2024-01-11T08:28:08;98951.03;;;1.91;94.80
64713;BME280;51140;45.340;5.980;2024-01-11T08:30:33;98945.81;;;1.91;94.79
64713;BME280;51140;45.340;5.980;2024-01-11T08:32:59;98950.75;;;1.86;94.53
64713;BME280;51140;45.340;5.980;2024-01-11T08:35:24;98948.97;;;1.87;95.26
64713;BME280;51140;45.340;5.980;2024-01-11T08:37:49;98943.88;;;1.79;94.55
64713;BME280;51140;45.340;5.980;2024-01-11T08:40:15;98952.19;;;1.89;94.95
64713;BME280;51140;45.340;5.980;2024-01-11T08:42:41;98952.03;;;1.90;95.30
64713;BME280;51140;45.340;5.980;2024-01-11T08:45:08;98948.94;;;2.08;95.27
64713;BME280;51140;45.340;5.980;2024-01-11T08:47:34;98956.22;;;2.12;95.91
64713;BME280;51140;45.340;5.980;2024-01-11T08:50:00;98949.63;;;2.16;94.04
64713;BME280;51140;45.340;5.980;2024-01-11T08:52:26;98955.59;;;2.10;94.45
64713;BME280;51140;45.340;5.980;2024-01-11T08:54:51;98951.97;;;2.11;94.80
64713;BME280;51140;45.340;5.980;2024-01-11T08:57:21;98947.94;;;2.09;94.12
64713;BME280;51140;45.340;5.980;2024-01-11T08:59:46;98945.38;;;2.15;94.91
64713;BME280;51140;45.340;5.980;2024-01-11T09:02:11;98952.19;;;2.10;93.75
64713;BME280;51140;45.340;5.980;2024-01-11T09:04:37;98944.38;;;2.16;94.38
64713;BME280;51140;45.340;5.980;2024-01-11T09:07:02;98956.50;;;2.24;93.92
64713;BME280;51140;45.340;5.980;2024-01-11T09:09:28;98952.69;;;2.26;94.34
64713;BME280;51140;45.340;5.980;2024-01-11T09:11:53;98963.94;;;2.20;95.23
64713;BME280;51140;45.340;5.980;2024-01-11T09:14:19;98967.22;;;2.29;94.86
64713;BME280;51140;45.340;5.980;2024-01-11T09:16:44;98969.22;;;2.27;95.65
64713;BME280;51140;45.340;5.980;2024-01-11T09:19:11;98973.72;;;2.33;94.79
64713;BME280;51140;45.340;5.980;2024-01-11T09:21:36;98979.94;;;2.32;94.02
64713;BME280;51140;45.340;5.980;2024-01-11T09:24:02;98988.84;;;2.38;93.42
64713;BME280;51140;45.340;5.980;2024-01-11T09:26:27;98995.66;;;2.32;93.80
64713;BME280;51140;45.340;5.980;2024-01-11T09:28:52;98985.94;;;2.26;93.70
64713;BME280;51140;45.340;5.980;2024-01-11T09:31:18;98984.66;;;2.43;93.15
64713;BME280;51140;45.340;5.980;2024-01-11T09:33:43;99004.03;;;2.21;92.44
64713;BME280;51140;45.340;5.980;2024-01-11T09:36:11;98995.59;;;2.25;93.30
64713;BME280;51140;45.340;5.980;2024-01-11T09:38:37;99005.59;;;2.37;94.39
64713;BME280;51140;45.340;5.980;2024-01-11T09:41:07;99002.97;;;2.43;93.39
64713;BME280;51140;45.340;5.980;2024-01-11T09:43:34;98998.31;;;2.39;93.72
64713;BME280;51140;45.340;5.980;2024-01-11T09:46:03;98995.75;;;2.45;93.06
64713;BME280;51140;45.340;5.980;2024-01-11T09:48:33;99003.84;;;2.50;92.96
64713;BME280;51140;45.340;5.980;2024-01-11T09:51:01;99001.13;;;2.37;94.95
64713;BME280;51140;45.340;5.980;2024-01-11T09:53:29;98990.91;;;2.42;93.87
64713;BME280;51140;45.340;5.980;2024-01-11T09:55:58;98993.75;;;2.47;93.27
64713;BME280;51140;45.340;5.980;2024-01-11T09:58:23;98992.75;;;2.48;93.75
64713;BME280;51140;45.340;5.980;2024-01-11T10:00:53;98982.06;;;2.50;93.15
64713;BME280;51140;45.340;5.980;2024-01-11T10:03:19;98987.81;;;2.66;92.89
64713;BME280;51140;45.340;5.980;2024-01-11T10:05:46;98983.44;;;2.73;93.25
64713;BME280;51140;45.340;5.980;2024-01-11T10:08:14;98987.63;;;2.68;94.26
64713;BME280;51140;45.340;5.980;2024-01-11T10:10:39;98981.88;;;2.51;94.24
64713;BME280;51140;45.340;5.980;2024-01-11T10:13:05;98972.34;;;2.44;94.14
64713;BME280;51140;45.340;5.980;2024-01-11T10:15:30;98974.88;;;2.58;93.75
64713;BME280;51140;45.340;5.980;2024-01-11T10:17:56;98977.88;;;2.55;92.74
64713;BME280;51140;45.340;5.980;2024-01-11T10:20:21;98976.91;;;2.63;94.09
64713;BME280;51140;45.340;5.980;2024-01-11T10:22:49;98976.91;;;2.63;92.71
64713;BME280;51140;45.340;5.980;2024-01-11T10:25:15;98977.25;;;2.53;93.56
64713;BME280;51140;45.340;5.980;2024-01-11T10:27:42;98968.59;;;2.53;94.16
64713;BME280;51140;45.340;5.980;2024-01-11T10:30:09;98965.75;;;2.54;93.78
64713;BME280;51140;45.340;5.980;2024-01-11T10:32:35;98965.25;;;2.65;93.53
64713;BME280;51140;45.340;5.980;2024-01-11T10:35:03;98959.16;;;2.58;93.42
64713;BME280;51140;45.340;5.980;2024-01-11T10:37:31;98966.41;;;2.63;92.82
64713;BME280;51140;45.340;5.980;2024-01-11T10:39:58;98971.66;;;2.56;93.23
64713;BME280;51140;45.340;5.980;2024-01-11T10:42:29;98965.91;;;2.74;93.52
64713;BME280;51140;45.340;5.980;2024-01-11T10:44:59;98966.91;;;2.73;92.61
64713;BME280;51140;45.340;5.980;2024-01-11T10:47:27;98968.09;;;2.77;91.91
64713;BME280;51140;45.340;5.980;2024-01-11T10:49:56;98961.06;;;2.77;92.20
64713;BME280;51140;45.340;5.980;2024-01-11T10:52:28;98975.38;;;2.75;92.58
64713;BME280;51140;45.340;5.980;2024-01-11T10:54:59;98969.81;;;2.91;91.54
64713;BME280;51140;45.340;5.980;2024-01-11T10:57:27;98980.22;;;2.78;93.39
64713;BME280;51140;45.340;5.980;2024-01-11T10:59:54;98966.91;;;2.73;93.21
64713;BME280;51140;45.340;5.980;2024-01-11T11:02:20;98967.63;;;2.60;93.00
64713;BME280;51140;45.340;5.980;2024-01-11T11:04:48;98972.09;;;2.66;93.63
64713;BME280;51140;45.340;5.980;2024-01-11T11:07:16;98961.97;;;2.57;94.54
64713;BME280;51140;45.340;5.980;2024-01-11T11:09:44;98971.16;;;2.74;91.70
64713;BME280;51140;45.340;5.980;2024-01-11T11:12:11;98964.91;;;2.81;91.72
64713;BME280;51140;45.340;5.980;2024-01-11T11:14:38;98971.38;;;2.85;91.99
64713;BME280;51140;45.340;5.980;2024-01-11T11:17:04;98974.41;;;2.82;93.61
64713;BME280;51140;45.340;5.980;2024-01-11T11:19:30;98962.13;;;2.89;91.64
64713;BME280;51140;45.340;5.980;2024-01-11T11:21:56;98954.66;;;2.86;90.89
64713;BME280;51140;45.340;5.980;2024-01-11T11:24:21;98967.97;;;2.85;90.81
64713;BME280;51140;45.340;5.980;2024-01-11T11:26:47;98971.16;;;2.80;91.80
64713;BME280;51140;45.340;5.980;2024-01-11T11:29:15;98970.44;;;2.93;90.62
64713;BME280;51140;45.340;5.980;2024-01-11T11:31:45;98961.75;;;2.93;90.87
64713;BME280;51140;45.340;5.980;2024-01-11T11:34:19;98969.81;;;2.91;90.42
64713;BME280;51140;45.340;5.980;2024-01-11T11:36:46;98968.16;;;2.83;91.12
64713;BME280;51140;45.340;5.980;2024-01-11T11:39:13;98964.16;;;2.87;90.91
64713;BME280;51140;45.340;5.980;2024-01-11T11:41:39;98970.47;;;3.00;92.32
64713;BME280;51140;45.340;5.980;2024-01-11T11:44:05;98956.16;;;3.09;92.32
64713;BME280;51140;45.340;5.980;2024-01-11T11:46:31;98965.44;;;3.05;92.66
64713;BME280;51140;45.340;5.980;2024-01-11T11:48:58;98970.69;;;3.11;92.04
64713;BME280;51140;45.340;5.980;2024-01-11T11:51:24;98967.97;;;2.92;93.04
64713;BME280;51140;45.340;5.980;2024-01-11T11:53:51;98960.88;;;2.85;93.31
64713;BME280;51140;45.340;5.980;2024-01-11T11:56:21;98950.56;;;2.77;94.23
64713;BME280;51140;45.340;5.980;2024-01-11T11:58:48;98942.69;;;2.77;93.08
64713;BME280;51140;45.340;5.980;2024-01-11T12:01:15;98956.25;;;2.81;92.71
64713;BME280;51140;45.340;5.980;2024-01-11T12:03:43;98950.78;;;2.76;92.81
64713;BME280;51140;45.340;5.980;2024-01-11T12:06:15;98938.69;;;2.81;91.64
64713;BME280;51140;45.340;5.980;2024-01-11T12:08:42;98952.88;;;2.94;90.20
64713;BME280;51140;45.340;5.980;2024-01-11T12:11:08;98948.84;;;2.98;90.02
64713;BME280;51140;45.340;5.980;2024-01-11T12:13:33;98943.00;;;2.96;91.81
64713;BME280;51140;45.340;5.980;2024-01-11T12:15:59;98938.19;;;2.99;90.44
64713;BME280;51140;45.340;5.980;2024-01-11T12:18:25;98939.91;;;2.85;91.15
64713;BME280;51140;45.340;5.980;2024-01-11T12:20:51;98929.28;;;2.94;89.80
64713;BME280;51140;45.340;5.980;2024-01-11T12:23:18;98937.94;;;2.94;90.85
64713;BME280;51140;45.340;5.980;2024-01-11T12:25:43;98931.50;;;3.03;89.86
64713;BME280;51140;45.340;5.980;2024-01-11T12:28:09;98938.78;;;3.01;90.31
64713;BME280;51140;45.340;5.980;2024-01-11T12:30:34;98938.78;;;3.01;91.36
64713;BME280;51140;45.340;5.980;2024-01-11T12:33:00;98933.16;;;3.04;90.28
64713;BME280;51140;45.340;5.980;2024-01-11T12:35:30;98939.00;;;3.00;91.98
64713;BME280;51140;45.340;5.980;2024-01-11T12:37:59;98935.56;;;3.06;91.31
64713;BME280;51140;45.340;5.980;2024-01-11T12:40:25;98928.31;;;3.08;90.91
64713;BME280;51140;45.340;5.980;2024-01-11T12:42:52;98935.03;;;3.30;89.28
64713;BME280;51140;45.340;5.980;2024-01-11T12:45:18;98927.94;;;3.17;90.73
64713;BME280;51140;45.340;5.980;2024-01-11T12:47:44;98933.19;;;3.11;90.76
64713;BME280;51140;45.340;5.980;2024-01-11T12:50:10;98926.34;;;3.16;89.92
64713;BME280;51140;45.340;5.980;2024-01-11T12:52:37;98923.19;;;2.86;90.88
64713;BME280;51140;45.340;5.980;2024-01-11T12:55:03;98918.22;;;3.05;89.38
64713;BME280;51140;45.340;5.980;2024-01-11T12:57:29;98930.31;;;3.06;91.50
64713;BME280;51140;45.340;5.980;2024-01-11T13:00:09;98917.41;;;3.04;90.68
64713;BME280;51140;45.340;5.980;2024-01-11T13:02:35;98919.44;;;3.09;88.75
64713;BME280;51140;45.340;5.980;2024-01-11T13:05:01;98916.31;;;2.85;89.56